Time;durP1;ratioP1;P1;durP2;ratioP2;P2;SDS_P1;SDS_P2;PMS_P1;PMS_P2;Temp;Humidity;BMP_temperature;BMP_pressure;BME280_temperature;BME280_humidity;BME280_pressure;Samples;Min_cycle;Max_cycle;Signal;HPM_P1;HPM_P2
2021/08/20 00:00:06;;;;;;;1.88;1.00;;;;;;;18.20;78.53;100610.91;4997497;28;20029;-72
2021/08/20 00:02:31;;;;;;;2.53;1.10;;;;;;;18.18;78.04;100613.25;4987031;28;20038;-72
2021/08/20 00:04:57;;;;;;;1.30;1.05;;;;;;;18.14;77.34;100610.31;5020908;28;20032;-73
2021/08/20 00:07:22;;;;;;;1.70;0.95;;;;;;;18.15;77.76;100611.94;5018336;28;20045;-72
2021/08/20 00:09:55;;;;;;;1.45;1.00;;;;;;;18.13;77.60;100613.44;5003766;28;20029;-72
2021/08/20 00:12:21;;;;;;;1.30;0.90;;;;;;;18.13;78.13;100610.63;5009274;28;20033;-72
2021/08/20 00:14:47;;;;;;;2.45;0.90;;;;;;;18.12;78.25;100609.00;5028806;28;20029;-73
2021/08/20 00:17:12;;;;;;;2.90;1.40;;;;;;;18.09;78.95;100605.69;5026634;28;20041;-72
2021/08/20 00:19:38;;;;;;;1.85;1.10;;;;;;;18.08;78.69;100608.88;5034729;28;20025;-72
2021/08/20 00:22:05;;;;;;;2.03;0.90;;;;;;;18.07;77.72;100607.19;5021015;28;20032;-72
2021/08/20 00:24:30;;;;;;;1.17;0.88;;;;;;;18.06;78.11;100599.94;5035152;28;20040;-72
2021/08/20 00:26:56;;;;;;;2.38;1.30;;;;;;;18.06;78.39;100599.94;5020349;28;20033;-73
2021/08/20 00:29:22;;;;;;;1.98;1.15;;;;;;;18.04;79.20;100607.88;5033369;28;20041;-73
2021/08/20 00:31:47;;;;;;;1.50;1.02;;;;;;;18.02;78.34;100604.59;5013066;28;20117;-72
2021/08/20 00:34:13;;;;;;;1.58;0.98;;;;;;;18.01;78.32;100598.16;5020375;28;20060;-72
2021/08/20 00:36:38;;;;;;;1.60;1.15;;;;;;;18.00;78.48;100602.16;5018806;28;20032;-72
2021/08/20 00:39:04;;;;;;;1.27;1.02;;;;;;;17.99;78.79;100597.66;5004369;28;20039;-72
2021/08/20 00:41:29;;;;;;;1.98;1.27;;;;;;;17.97;77.64;100602.81;5033038;28;20397;-73
2021/08/20 00:43:55;;;;;;;1.67;1.08;;;;;;;17.96;78.75;100597.53;5019052;28;20029;-73
2021/08/20 00:46:20;;;;;;;1.77;1.00;;;;;;;17.97;79.03;100597.22;5017353;28;20034;-73
2021/08/20 00:48:46;;;;;;;2.00;0.95;;;;;;;17.95;79.55;100605.16;5026578;28;20037;-72
2021/08/20 00:51:14;;;;;;;2.03;0.88;;;;;;;17.92;79.40;100600.22;5022337;28;20083;-73
2021/08/20 00:53:40;;;;;;;2.15;1.08;;;;;;;17.93;79.47;100590.63;5036841;28;20037;-73
2021/08/20 00:56:06;;;;;;;1.73;1.10;;;;;;;17.92;79.96;100597.41;5016573;28;20474;-73
2021/08/20 00:58:31;;;;;;;1.40;1.13;;;;;;;17.90;79.86;100588.50;4988135;28;20451;-73
2021/08/20 01:00:57;;;;;;;1.48;1.10;;;;;;;17.90;79.28;100591.28;5033854;28;20034;-73
2021/08/20 01:03:24;;;;;;;1.67;1.17;;;;;;;17.90;80.00;100584.88;5013542;28;20037;-73
2021/08/20 01:05:51;;;;;;;2.45;1.10;;;;;;;17.90;79.82;100576.44;5003839;28;20048;-72
2021/08/20 01:08:16;;;;;;;1.92;1.08;;;;;;;17.86;79.88;100579.13;5034541;28;20494;-73
2021/08/20 01:10:42;;;;;;;1.48;1.05;;;;;;;17.87;79.59;100580.75;5029057;28;20028;-72
2021/08/20 01:13:07;;;;;;;3.03;1.30;;;;;;;17.86;79.54;100571.50;5034084;28;20068;-72
2021/08/20 01:15:33;;;;;;;3.15;1.17;;;;;;;17.85;79.87;100578.25;5001118;28;20038;-73
2021/08/20 01:17:58;;;;;;;1.52;0.98;;;;;;;17.85;80.42;100571.81;5012014;28;20025;-73
2021/08/20 01:20:24;;;;;;;1.70;1.10;;;;;;;17.81;79.99;100571.69;5019112;28;20473;-73
2021/08/20 01:22:50;;;;;;;2.65;1.20;;;;;;;17.83;79.93;100575.00;5018484;28;20083;-73
2021/08/20 01:25:15;;;;;;;1.98;1.20;;;;;;;17.81;80.97;100568.06;5010026;28;20032;-72
2021/08/20 01:27:41;;;;;;;2.63;1.00;;;;;;;17.82;80.42;100564.09;5016312;28;20363;-72
2021/08/20 01:30:07;;;;;;;1.77;1.17;;;;;;;17.81;80.00;100570.88;4982424;28;20510;-72
2021/08/20 01:32:32;;;;;;;1.10;1.00;;;;;;;17.81;80.33;100568.06;5016737;28;20045;-72
2021/08/20 01:34:58;;;;;;;1.27;1.08;;;;;;;17.79;80.61;100574.03;5019568;28;20044;-72
2021/08/20 01:37:23;;;;;;;1.95;1.00;;;;;;;17.78;80.83;100563.09;5006113;28;20034;-72
2021/08/20 01:39:49;;;;;;;3.10;1.00;;;;;;;17.76;80.77;100560.63;4982900;28;20061;-72
2021/08/20 01:42:14;;;;;;;1.73;1.00;;;;;;;17.76;80.33;100560.63;5030858;28;20030;-73
2021/08/20 01:44:41;;;;;;;1.60;1.00;;;;;;;17.77;80.51;100550.22;5014156;28;20037;-73
2021/08/20 01:47:10;;;;;;;2.17;1.10;;;;;;;17.75;79.57;100559.00;5023320;28;20447;-72
2021/08/20 01:49:36;;;;;;;1.98;1.30;;;;;;;17.75;80.97;100549.75;5035465;28;20055;-73
2021/08/20 01:52:01;;;;;;;1.70;1.13;;;;;;;17.75;80.53;100561.00;5013732;28;20049;-73
2021/08/20 01:54:27;;;;;;;3.05;1.50;;;;;;;17.73;81.37;100552.88;5034061;28;20093;-73
2021/08/20 01:56:53;;;;;;;2.42;1.20;;;;;;;17.71;80.71;100555.22;5020760;28;20037;-73
2021/08/20 01:59:18;;;;;;;2.25;1.00;;;;;;;17.72;80.64;100556.03;5028335;28;20040;-73
2021/08/20 02:01:44;;;;;;;1.85;1.08;;;;;;;17.70;80.46;100558.38;4995387;28;20049;-73
2021/08/20 02:04:09;;;;;;;2.08;1.15;;;;;;;17.71;80.92;100560.81;5025130;28;20107;-73
2021/08/20 02:06:35;;;;;;;3.72;1.10;;;;;;;17.69;81.03;100560.38;5011112;28;20025;-72
2021/08/20 02:09:00;;;;;;;1.65;1.35;;;;;;;17.68;81.06;100558.69;5014066;28;20037;-73
2021/08/20 02:11:26;;;;;;;2.00;1.60;;;;;;;17.67;80.50;100559.88;5017315;28;20033;-73
2021/08/20 02:13:51;;;;;;;1.60;1.15;;;;;;;17.65;80.54;100560.19;5018608;28;20026;-73
2021/08/20 02:16:17;;;;;;;2.63;1.30;;;;;;;17.65;79.71;100563.00;4999498;28;20033;-73
2021/08/20 02:18:42;;;;;;;2.15;1.10;;;;;;;17.64;81.03;100558.56;5001243;28;20040;-73
2021/08/20 02:21:08;;;;;;;2.92;1.45;;;;;;;17.64;81.06;100555.75;5015059;28;20076;-72
2021/08/20 02:23:35;;;;;;;2.08;1.20;;;;;;;17.63;80.85;100559.75;5009582;28;20026;-72
2021/08/20 02:26:01;;;;;;;2.42;1.15;;;;;;;17.63;81.34;100556.09;5002766;28;20087;-72
2021/08/20 02:28:26;;;;;;;1.40;0.93;;;;;;;17.60;79.96;100553.97;5026989;28;20037;-72
2021/08/20 02:30:53;;;;;;;2.08;1.10;;;;;;;17.60;80.23;100553.97;5001421;28;20034;-72
2021/08/20 02:33:18;;;;;;;1.52;1.20;;;;;;;17.60;80.20;100559.56;5024506;28;20032;-72
2021/08/20 02:35:44;;;;;;;1.45;1.27;;;;;;;17.59;80.68;100558.75;5015805;28;20030;-72
2021/08/20 02:38:09;;;;;;;1.92;1.15;;;;;;;17.59;81.03;100555.94;5004318;28;20026;-72
2021/08/20 02:40:34;;;;;;;1.95;1.20;;;;;;;17.59;81.46;100558.75;5012777;28;20034;-72
2021/08/20 02:43:00;;;;;;;2.45;1.30;;;;;;;17.57;81.17;100555.47;4988593;28;20042;-72
2021/08/20 02:45:26;;;;;;;1.58;1.15;;;;;;;17.56;81.99;100551.03;4988814;28;20038;-72
2021/08/20 02:47:52;;;;;;;3.70;1.20;;;;;;;17.55;80.33;100555.00;5038910;28;20371;-72
2021/08/20 02:50:17;;;;;;;1.05;0.88;;;;;;;17.52;80.49;100555.66;5033995;28;20038;-72
2021/08/20 02:52:43;;;;;;;2.55;1.27;;;;;;;17.54;80.98;100553.34;5002954;28;20053;-72
2021/08/20 02:55:09;;;;;;;1.50;1.15;;;;;;;17.53;80.50;100556.50;5027669;28;20030;-72
2021/08/20 02:57:34;;;;;;;2.80;1.17;;;;;;;17.52;80.69;100552.84;5003920;28;20049;-72
2021/08/20 03:00:00;;;;;;;1.67;1.08;;;;;;;17.52;81.17;100547.22;5022406;28;20191;-72
2021/08/20 03:02:25;;;;;;;1.90;1.10;;;;;;;17.51;81.32;100553.22;5021093;28;20036;-72
2021/08/20 03:04:51;;;;;;;2.13;1.20;;;;;;;17.49;80.94;100552.72;4989065;28;20398;-72
2021/08/20 03:07:17;;;;;;;2.00;1.20;;;;;;;17.49;81.16;100547.09;5004782;28;20038;-72
2021/08/20 03:09:42;;;;;;;2.00;1.20;;;;;;;17.48;80.42;100549.09;5020340;28;20069;-72
2021/08/20 03:12:08;;;;;;;4.75;1.30;;;;;;;17.48;81.78;100543.47;5032628;28;20033;-72
2021/08/20 03:14:34;;;;;;;2.00;1.20;;;;;;;17.47;81.62;100544.66;5005386;28;20037;-72
2021/08/20 03:16:59;;;;;;;1.48;1.27;;;;;;;17.46;81.29;100544.97;5018689;28;20030;-73
2021/08/20 03:19:25;;;;;;;3.53;1.60;;;;;;;17.46;81.28;100542.16;4987018;28;20026;-72
2021/08/20 03:21:50;;;;;;;2.00;1.15;;;;;;;17.43;81.40;100543.66;5015529;28;20025;-72
2021/08/20 03:24:16;;;;;;;2.88;1.20;;;;;;;17.42;81.00;100537.22;5020075;28;20057;-72
2021/08/20 03:26:41;;;;;;;1.92;1.30;;;;;;;17.41;81.41;100532.78;5019445;28;20037;-72
2021/08/20 03:29:07;;;;;;;3.58;1.45;;;;;;;17.41;81.29;100535.59;5029713;28;20033;-72
2021/08/20 03:31:32;;;;;;;2.80;1.50;;;;;;;17.41;82.79;100531.94;5014231;28;20080;-72
2021/08/20 03:33:58;;;;;;;2.22;1.60;;;;;;;17.40;81.88;100528.31;5021025;28;20065;-72
2021/08/20 03:36:24;;;;;;;2.03;1.33;;;;;;;17.39;81.89;100526.69;5004296;28;20041;-72
2021/08/20 03:38:50;;;;;;;2.72;1.30;;;;;;;17.38;81.25;100529.81;5015486;28;20028;-72
2021/08/20 03:41:19;;;;;;;1.88;1.08;;;;;;;17.38;80.80;100524.22;5003722;28;20032;-73
2021/08/20 03:43:45;;;;;;;1.90;1.20;;;;;;;17.37;82.01;100517.78;4987190;28;20112;-72
2021/08/20 03:46:14;;;;;;;1.73;1.15;;;;;;;17.36;81.52;100518.13;5021132;28;20034;-72
2021/08/20 03:48:39;;;;;;;2.92;1.27;;;;;;;17.35;80.59;100516.47;5002731;28;20085;-72
2021/08/20 03:51:05;;;;;;;3.55;1.10;;;;;;;17.34;81.33;100518.47;4999364;28;20419;-72
2021/08/20 03:53:30;;;;;;;1.90;1.50;;;;;;;17.35;81.64;100519.28;4993084;28;20052;-72
2021/08/20 03:55:56;;;;;;;3.88;1.33;;;;;;;17.34;81.47;100524.06;5012089;28;20041;-72
2021/08/20 03:58:22;;;;;;;2.63;1.17;;;;;;;17.34;81.73;100517.63;4986677;28;20029;-72
2021/08/20 04:00:52;;;;;;;3.05;1.40;;;;;;;17.33;82.06;100522.44;5030840;28;20025;-72
2021/08/20 04:03:23;;;;;;;1.55;1.40;;;;;;;17.31;82.07;100512.72;5022151;28;20068;-72
2021/08/20 04:05:49;;;;;;;2.08;1.52;;;;;;;17.32;81.93;100514.34;5013058;28;20574;-72
2021/08/20 04:08:14;;;;;;;2.22;1.33;;;;;;;17.31;82.08;100519.13;5003001;28;20100;-72
2021/08/20 04:10:46;;;;;;;1.80;1.40;;;;;;;17.29;81.53;100510.22;4999727;28;20033;-72
2021/08/20 04:13:12;;;;;;;2.25;1.25;;;;;;;17.30;81.15;100519.47;5000194;28;20034;-73
2021/08/20 04:15:38;;;;;;;2.40;1.33;;;;;;;17.28;81.58;100519.81;5007728;28;20505;-72
2021/08/20 04:18:03;;;;;;;1.90;1.48;;;;;;;17.28;82.41;100521.81;4988644;28;20036;-72
2021/08/20 04:20:29;;;;;;;3.45;1.70;;;;;;;17.27;82.41;100534.19;5017399;28;20037;-73
2021/08/20 04:22:55;;;;;;;1.98;1.33;;;;;;;17.25;82.37;100519.69;5017152;28;20389;-73
2021/08/20 04:25:21;;;;;;;1.90;1.40;;;;;;;17.24;83.13;100518.84;5008478;28;20034;-72
2021/08/20 04:27:47;;;;;;;2.53;1.45;;;;;;;17.26;82.48;100527.75;4999171;28;20042;-73
2021/08/20 04:30:13;;;;;;;3.13;1.50;;;;;;;17.25;81.42;100525.31;5008457;28;20033;-73
2021/08/20 04:32:38;;;;;;;1.85;1.15;;;;;;;17.24;81.59;100523.63;5003554;28;20038;-73
2021/08/20 04:35:04;;;;;;;2.63;1.20;;;;;;;17.24;81.82;100526.44;5030839;28;20022;-73
2021/08/20 04:37:30;;;;;;;2.35;1.30;;;;;;;17.23;81.79;100533.22;5033784;28;20061;-73
2021/08/20 04:39:55;;;;;;;2.67;1.60;;;;;;;17.22;81.95;100534.38;5001140;28;20030;-73
2021/08/20 04:42:20;;;;;;;1.55;1.40;;;;;;;17.22;81.78;100539.97;4996624;28;20029;-73
2021/08/20 04:44:46;;;;;;;2.63;1.60;;;;;;;17.22;82.74;100545.59;5022494;28;20032;-73
2021/08/20 04:47:12;;;;;;;2.47;1.50;;;;;;;17.19;82.19;100539.53;5010189;28;20076;-73
2021/08/20 04:49:37;;;;;;;3.15;1.52;;;;;;;17.21;82.36;100541.97;4997074;28;20037;-73
2021/08/20 04:52:03;;;;;;;1.63;1.23;;;;;;;17.20;82.67;100543.97;5021383;28;20068;-73
2021/08/20 04:54:29;;;;;;;1.55;1.40;;;;;;;17.21;82.26;100550.38;5021047;28;20060;-73
2021/08/20 04:56:54;;;;;;;3.75;1.70;;;;;;;17.20;82.71;100546.75;5015905;28;20026;-73
2021/08/20 04:59:20;;;;;;;2.88;1.70;;;;;;;17.19;83.11;100544.31;5019202;28;20486;-73
2021/08/20 05:01:46;;;;;;;2.35;1.85;;;;;;;17.16;83.08;100545.81;5015927;28;20037;-73
2021/08/20 05:04:11;;;;;;;1.70;1.40;;;;;;;17.15;81.65;100544.16;5005566;28;20531;-73
2021/08/20 05:06:37;;;;;;;2.67;1.65;;;;;;;17.17;82.56;100546.63;5018386;28;20053;-72
2021/08/20 05:09:03;;;;;;;3.38;1.60;;;;;;;17.16;82.40;100548.63;4986167;28;20037;-72
2021/08/20 05:11:28;;;;;;;2.75;1.40;;;;;;;17.16;81.29;100545.81;5030701;28;20038;-73
2021/08/20 05:13:55;;;;;;;2.30;1.35;;;;;;;17.16;82.52;100551.41;5001918;28;20084;-73
2021/08/20 05:16:20;;;;;;;3.53;1.20;;;;;;;17.16;82.17;100544.97;5027163;28;20029;-73
2021/08/20 05:18:46;;;;;;;3.33;1.58;;;;;;;17.16;82.68;100551.41;5023730;28;20038;-73
2021/08/20 05:21:12;;;;;;;1.75;1.30;;;;;;;17.16;82.17;100544.97;5020690;28;20386;-73
2021/08/20 05:23:37;;;;;;;1.40;1.20;;;;;;;17.15;81.93;100551.75;4997419;28;20418;-73
2021/08/20 05:26:03;;;;;;;2.47;1.27;;;;;;;17.15;82.44;100551.75;5024637;28;20496;-73
2021/08/20 05:28:28;;;;;;;2.92;1.50;;;;;;;17.14;82.45;100553.72;5019517;28;20030;-73
2021/08/20 05:30:54;;;;;;;2.33;1.27;;;;;;;17.15;82.07;100554.56;5015592;28;20394;-73
2021/08/20 05:33:19;;;;;;;3.28;1.73;;;;;;;17.14;82.69;100550.94;5005326;28;20033;-73
2021/08/20 05:35:47;;;;;;;2.42;1.27;;;;;;;17.14;82.48;100548.13;5019082;28;20037;-73
2021/08/20 05:38:13;;;;;;;2.35;1.50;;;;;;;17.15;82.63;100555.38;5019215;28;20470;-73
2021/08/20 05:40:39;;;;;;;1.80;1.40;;;;;;;17.14;83.09;100562.16;4984411;28;20530;-73
2021/08/20 05:43:05;;;;;;;2.30;1.58;;;;;;;17.13;83.16;100554.06;5001713;28;20029;-73
2021/08/20 05:45:30;;;;;;;2.72;1.40;;;;;;;17.15;82.93;100560.16;5010918;28;20041;-73
2021/08/20 05:47:56;;;;;;;2.58;1.40;;;;;;;17.13;82.35;100556.88;5001060;28;20030;-73
2021/08/20 05:50:21;;;;;;;1.70;1.40;;;;;;;17.15;82.59;100554.56;5029888;28;20437;-72
2021/08/20 05:52:47;;;;;;;1.85;1.30;;;;;;;17.15;82.87;100565.78;5017639;28;20061;-73
2021/08/20 05:55:12;;;;;;;2.70;1.60;;;;;;;17.18;83.51;100567.91;5019600;28;20033;-72
2021/08/20 05:57:38;;;;;;;2.15;1.63;;;;;;;17.18;83.27;100568.72;5007479;28;20040;-72
2021/08/20 06:00:07;;;;;;;2.38;1.45;;;;;;;17.18;83.20;100565.91;4992409;28;20084;-73
2021/08/20 06:02:33;;;;;;;1.77;1.38;;;;;;;17.19;83.25;100566.75;4992200;28;20036;-72
2021/08/20 06:04:58;;;;;;;1.25;1.15;;;;;;;17.18;82.47;100568.72;5028267;28;20482;-72
2021/08/20 06:07:24;;;;;;;2.45;1.58;;;;;;;17.21;83.08;100567.22;5011213;28;20029;-72
2021/08/20 06:09:49;;;;;;;3.22;1.50;;;;;;;17.23;83.40;100567.72;4990846;28;20030;-72
2021/08/20 06:12:15;;;;;;;2.60;1.50;;;;;;;17.23;83.18;100570.53;5017685;28;20065;-73
2021/08/20 06:14:40;;;;;;;3.72;1.63;;;;;;;17.25;83.02;100570.19;4999916;28;20026;-72
2021/08/20 06:17:06;;;;;;;1.67;1.30;;;;;;;17.25;83.16;100570.19;5021883;28;20053;-72
2021/08/20 06:19:31;;;;;;;1.67;1.20;;;;;;;17.26;82.76;100569.03;5013988;28;20095;-73
2021/08/20 06:21:57;;;;;;;2.25;1.13;;;;;;;17.28;81.58;100566.72;5046150;28;20042;-73
2021/08/20 06:24:22;;;;;;;2.58;1.27;;;;;;;17.27;81.29;100562.25;5026179;28;20021;-73
2021/08/20 06:26:48;;;;;;;1.60;1.02;;;;;;;17.30;80.93;100567.19;5007747;28;20117;-73
2021/08/20 06:29:16;;;;;;;1.80;1.10;;;;;;;17.30;80.38;100570.84;5004879;28;20030;-73
2021/08/20 06:31:42;;;;;;;1.83;1.20;;;;;;;17.33;80.73;100569.34;5028427;28;20065;-73
2021/08/20 06:34:07;;;;;;;1.25;1.00;;;;;;;17.35;80.46;100581.03;5025718;28;20039;-73
2021/08/20 06:51:39;;;;;;;1.58;1.45;;;;;;;17.55;80.71;100576.63;5133319;27;20414;-73
2021/08/20 06:54:05;;;;;;;1.52;1.33;;;;;;;17.62;80.71;100576.91;5126936;27;20035;-75
2021/08/20 06:56:30;;;;;;;2.72;1.50;;;;;;;17.65;80.60;100571.44;5110513;28;20027;-75
2021/08/20 06:58:59;;;;;;;2.45;1.73;;;;;;;17.72;82.59;100570.06;5114930;28;20031;-75
2021/08/20 07:01:25;;;;;;;4.78;1.42;;;;;;;17.76;80.76;100566.25;5095298;28;20051;-75
2021/08/20 07:03:51;;;;;;;1.98;1.40;;;;;;;17.82;80.83;100566.91;5072692;28;20054;-75
2021/08/20 07:06:20;;;;;;;1.75;1.33;;;;;;;17.91;80.64;100572.44;5130067;28;20031;-75
2021/08/20 07:08:47;;;;;;;2.65;1.30;;;;;;;17.98;80.61;100576.38;5093225;28;20046;-75
2021/08/20 07:11:13;;;;;;;2.47;1.67;;;;;;;18.04;80.31;100580.59;5098617;28;20027;-75
2021/08/20 07:13:38;;;;;;;2.85;1.63;;;;;;;18.12;80.40;100575.28;5081366;28;20034;-74
2021/08/20 07:16:04;;;;;;;2.50;1.75;;;;;;;18.19;80.25;100581.16;5089360;28;20050;-75
2021/08/20 07:18:29;;;;;;;3.25;1.70;;;;;;;18.26;79.66;100575.81;5093993;28;20020;-71
2021/08/20 07:20:55;;;;;;;3.20;1.73;;;;;;;18.33;79.27;100569.63;5104644;28;20089;-74
2021/08/20 07:23:20;;;;;;;2.55;1.83;;;;;;;18.41;79.58;100571.53;5111984;28;20039;-74
2021/08/20 07:25:46;;;;;;;5.28;2.55;;;;;;;18.48;80.35;100571.78;5109879;28;20071;-74
2021/08/20 07:28:11;;;;;;;3.40;2.50;;;;;;;18.57;80.95;100574.53;5116535;28;20031;-74
2021/08/20 07:30:37;;;;;;;2.50;2.25;;;;;;;18.64;81.06;100578.41;5111710;28;20020;-74
2021/08/20 07:33:02;;;;;;;6.47;2.75;;;;;;;18.70;80.48;100579.03;5098925;28;20027;-74
2021/08/20 07:35:28;;;;;;;9.27;2.70;;;;;;;18.78;80.85;100574.47;5080800;28;20050;-74
2021/08/20 07:37:53;;;;;;;3.08;2.28;;;;;;;18.84;80.75;100579.56;5109214;28;20027;-74
2021/08/20 07:40:19;;;;;;;4.38;2.72;;;;;;;18.91;80.45;100574.16;5096348;28;20020;-74
2021/08/20 07:42:44;;;;;;;4.70;2.42;;;;;;;18.98;80.14;100579.22;5127358;28;20031;-74
2021/08/20 07:45:10;;;;;;;5.07;2.72;;;;;;;19.06;80.96;100569.03;5096157;28;20440;-74
2021/08/20 07:47:43;;;;;;;2.95;2.50;;;;;;;19.12;80.58;100576.06;5128449;27;20027;-74
2021/08/20 07:50:09;;;;;;;3.90;2.80;;;;;;;19.19;81.84;100579.97;5092601;28;20043;-74
2021/08/20 07:52:35;;;;;;;5.07;2.83;;;;;;;19.25;82.37;100582.53;5080441;28;20035;-74
2021/08/20 07:55:00;;;;;;;4.13;2.90;;;;;;;19.33;81.83;100587.22;5098759;28;20035;-74
2021/08/20 07:57:25;;;;;;;4.78;2.80;;;;;;;19.39;81.41;100586.66;5111618;28;20031;-71
2021/08/20 07:59:51;;;;;;;4.22;3.08;;;;;;;19.46;80.91;100588.06;5063310;28;20395;-71
2021/08/20 08:02:16;;;;;;;8.00;3.88;;;;;;;19.51;82.16;100582.19;5078208;28;20399;-71
2021/08/20 08:04:42;;;;;;;4.65;3.70;;;;;;;19.57;82.97;100594.84;5110810;28;20031;-70
2021/08/20 08:07:07;;;;;;;4.38;3.45;;;;;;;19.62;83.11;100594.63;5117312;28;20053;-71
2021/08/20 08:09:33;;;;;;;7.05;3.55;;;;;;;19.69;81.94;100592.03;5084990;28;20027;-71
2021/08/20 08:11:58;;;;;;;4.75;2.67;;;;;;;19.77;81.12;100591.09;5097285;28;20027;-71
2021/08/20 08:14:24;;;;;;;5.60;2.47;;;;;;;19.84;79.81;100594.16;5065806;28;20036;-71
2021/08/20 08:16:49;;;;;;;6.63;3.83;;;;;;;19.92;82.03;100594.34;5100475;28;20483;-71
2021/08/20 08:19:15;;;;;;;4.43;3.50;;;;;;;19.97;81.78;100594.13;5078042;28;20031;-71
2021/08/20 08:21:40;;;;;;;4.90;3.70;;;;;;;20.03;81.77;100598.31;5082542;28;20031;-71
2021/08/20 08:24:06;;;;;;;5.85;3.72;;;;;;;20.08;81.45;100604.53;5082907;28;20395;-71
2021/08/20 08:26:31;;;;;;;4.88;3.30;;;;;;;20.14;81.09;100604.28;5080203;28;20028;-71
2021/08/20 08:28:57;;;;;;;5.47;3.05;;;;;;;20.19;80.34;100604.88;5080149;28;20035;-71
2021/08/20 08:31:23;;;;;;;3.80;3.10;;;;;;;20.29;80.12;100604.38;5092843;28;20368;-71
2021/08/20 08:33:48;;;;;;;7.22;3.72;;;;;;;20.36;80.64;100598.09;5108375;28;20437;-71
2021/08/20 08:36:14;;;;;;;5.15;3.20;;;;;;;20.47;79.49;100604.06;5080561;28;20077;-71
2021/08/20 08:38:40;;;;;;;7.70;3.95;;;;;;;20.53;80.06;100611.13;5068898;28;20084;-72
2021/08/20 08:41:05;;;;;;;4.72;3.17;;;;;;;20.61;80.07;100606.50;5082508;28;20039;-72
2021/08/20 08:43:31;;;;;;;4.50;3.30;;;;;;;20.69;79.73;100605.53;5104892;28;20032;-72
2021/08/20 08:46:03;;;;;;;8.65;3.55;;;;;;;20.74;79.23;100597.63;5113574;28;20391;-72
2021/08/20 08:48:30;;;;;;;7.93;3.75;;;;;;;20.85;79.06;100599.91;5112664;28;20101;-72
2021/08/20 08:50:55;;;;;;;6.10;3.60;;;;;;;20.89;78.71;100603.66;5114287;28;20062;-72
2021/08/20 08:53:21;;;;;;;5.95;3.50;;;;;;;20.95;78.43;100602.22;5108097;28;20032;-72
2021/08/20 08:55:49;;;;;;;4.28;3.10;;;;;;;21.04;78.04;100599.22;5111951;28;20027;-72
2021/08/20 08:58:14;;;;;;;6.47;4.05;;;;;;;21.07;78.71;100607.78;5112321;28;20023;-72
2021/08/20 09:00:40;;;;;;;5.25;2.95;;;;;;;21.18;77.83;100606.06;5106328;28;20440;-72
2021/08/20 09:03:05;;;;;;;4.18;3.35;;;;;;;21.23;77.67;100604.13;5092244;28;20036;-72
2021/08/20 09:05:51;;;;;;;6.45;3.50;;;;;;;21.32;77.84;100610.44;5113263;28;20387;-72
2021/08/20 09:08:18;;;;;;;5.15;3.50;;;;;;;21.38;77.00;100612.63;5109889;27;20055;-72
2021/08/20 09:11:07;;;;;;;4.75;3.10;;;;;;;21.48;76.70;100613.25;5104542;28;20643;-72
2021/08/20 09:13:53;;;;;;;7.65;2.65;;;;;;;21.59;76.36;100606.72;5106600;28;20367;-72
2021/08/20 09:16:18;;;;;;;4.85;2.45;;;;;;;21.70;75.59;100611.78;5109857;27;20087;-72
2021/08/20 09:18:44;;;;;;;4.03;2.97;;;;;;;21.78;75.57;100614.41;5091616;28;20081;-72
2021/08/20 09:21:16;;;;;;;4.47;2.97;;;;;;;21.84;75.36;100609.28;5093227;28;20036;-72
2021/08/20 09:23:41;;;;;;;4.47;2.60;;;;;;;21.92;74.43;100610.28;5111931;28;20048;-72
2021/08/20 09:26:07;;;;;;;4.95;2.55;;;;;;;21.97;74.27;100605.16;5107011;28;20071;-72
2021/08/20 09:28:33;;;;;;;5.00;2.85;;;;;;;22.02;74.90;100606.88;5112259;28;20666;-72
2021/08/20 09:31:03;;;;;;;4.72;3.30;;;;;;;22.04;74.42;100611.00;5100148;28;20039;-72
2021/08/20 09:33:33;;;;;;;5.57;3.03;;;;;;;22.02;74.27;100610.53;5107316;28;20078;-72
2021/08/20 09:36:07;;;;;;;5.57;3.35;;;;;;;22.00;73.67;100612.09;5105751;28;20647;-72
2021/08/20 09:38:36;;;;;;;6.38;3.42;;;;;;;22.00;74.05;100612.91;5113443;28;20065;-71
2021/08/20 09:41:10;;;;;;;8.48;4.38;;;;;;;21.94;74.13;100614.38;5108227;28;20107;-71
2021/08/20 09:43:37;;;;;;;4.93;3.60;;;;;;;22.01;73.73;100614.56;5065069;28;20043;-71
2021/08/20 09:46:10;;;;;;;6.72;3.83;;;;;;;21.93;73.95;100612.75;5091315;28;20042;-71
2021/08/20 09:48:38;;;;;;;6.68;3.55;;;;;;;21.93;74.13;100612.75;5107316;28;20506;-69
2021/08/20 09:51:04;;;;;;;6.10;3.47;;;;;;;21.91;74.06;100609.47;5114332;28;20492;-69
2021/08/20 09:53:29;;;;;;;6.57;4.00;;;;;;;21.87;74.19;100614.25;5097355;28;20048;-70
2021/08/20 09:55:55;;;;;;;5.78;4.05;;;;;;;21.78;74.65;100607.94;5109358;28;20474;-69
2021/08/20 09:58:20;;;;;;;5.32;3.80;;;;;;;21.77;74.77;100611.97;5114833;28;20032;-69
2021/08/20 10:00:46;;;;;;;5.70;3.60;;;;;;;21.76;74.50;100610.34;5107770;28;20028;-69
2021/08/20 10:03:12;;;;;;;6.55;4.22;;;;;;;21.71;74.77;100607.78;5107863;28;20035;-70
2021/08/20 10:05:38;;;;;;;4.95;3.75;;;;;;;21.72;74.62;100617.91;5095260;28;20145;-70
2021/08/20 10:08:05;;;;;;;4.30;3.40;;;;;;;21.69;74.59;100612.97;5089828;28;20479;-69
2021/08/20 10:10:30;;;;;;;5.18;3.35;;;;;;;21.64;75.15;100612.06;5111616;28;20024;-70
2021/08/20 10:12:56;;;;;;;5.40;3.58;;;;;;;21.63;75.02;100615.28;5101317;28;20035;-70
2021/08/20 10:15:22;;;;;;;6.35;3.60;;;;;;;21.58;75.09;100613.53;5110374;27;20032;-71
2021/08/20 10:17:48;;;;;;;4.82;3.42;;;;;;;21.54;75.67;100612.63;5095773;28;20047;-72
2021/08/20 10:20:13;;;;;;;6.55;3.60;;;;;;;21.48;76.34;100611.28;5111214;28;20154;-70
2021/08/20 10:22:39;;;;;;;6.38;3.92;;;;;;;21.45;76.41;100609.16;5101755;28;20028;-69
2021/08/20 10:25:07;;;;;;;6.70;3.92;;;;;;;21.41;75.79;100608.28;5111530;28;20093;-71
2021/08/20 10:27:33;;;;;;;4.78;3.13;;;;;;;21.48;76.04;100614.13;5108616;28;20479;-69
2021/08/20 10:29:59;;;;;;;4.82;3.90;;;;;;;21.42;75.74;100609.91;5088235;28;20364;-70
2021/08/20 10:32:24;;;;;;;4.70;3.63;;;;;;;21.43;76.41;100608.72;5064526;28;20031;-70
2021/08/20 10:34:50;;;;;;;5.50;3.55;;;;;;;21.40;75.81;100612.28;5109059;28;20042;-70
2021/08/20 10:37:26;;;;;;;6.25;3.58;;;;;;;21.39;75.43;100605.78;5108630;28;20027;-70
2021/08/20 10:39:52;;;;;;;6.72;3.67;;;;;;;21.42;75.60;100615.53;5104223;28;20032;-70
2021/08/20 10:42:36;;;;;;;4.50;2.72;;;;;;;21.43;75.54;100605.91;5106993;28;20031;-70
2021/08/20 10:45:09;;;;;;;5.82;3.30;;;;;;;21.40;75.75;100612.28;5106926;28;20059;-70
2021/08/20 10:47:35;;;;;;;5.82;3.35;;;;;;;21.39;75.80;100607.81;5110784;28;20040;-70
2021/08/20 10:50:10;;;;;;;5.18;3.45;;;;;;;21.27;76.13;100605.06;5090350;28;20054;-70
2021/08/20 10:52:41;;;;;;;4.63;3.10;;;;;;;21.27;75.93;100605.06;5106904;28;20514;-70
2021/08/20 10:55:10;;;;;;;8.52;3.40;;;;;;;21.21;76.48;100610.16;5102430;28;20460;-70
2021/08/20 10:57:39;;;;;;;4.32;3.40;;;;;;;21.18;77.29;100616.53;5101587;28;20491;-70
2021/08/20 11:00:21;;;;;;;5.97;3.00;;;;;;;21.25;76.67;100611.06;5101974;28;20450;-70
2021/08/20 11:03:13;;;;;;;5.38;3.35;;;;;;;21.26;77.05;100612.72;5088551;28;20039;-70
2021/08/20 11:05:42;;;;;;;6.35;3.28;;;;;;;21.27;77.08;100603.03;5101305;28;20495;-70
2021/08/20 11:08:26;;;;;;;6.15;3.20;;;;;;;21.29;76.69;100611.16;5104722;28;20574;-70
2021/08/20 11:10:52;;;;;;;4.55;2.83;;;;;;;21.36;76.70;100614.97;5113325;28;20096;-69
2021/08/20 11:13:17;;;;;;;4.82;3.13;;;;;;;21.41;76.27;100611.91;5113100;28;20031;-70
2021/08/20 11:15:46;;;;;;;5.53;3.10;;;;;;;21.48;75.75;100597.16;5088703;28;20032;-72
2021/08/20 11:18:11;;;;;;;5.57;3.15;;;;;;;21.54;75.68;100600.53;5079200;28;20498;-72
2021/08/20 11:20:38;;;;;;;5.25;3.85;;;;;;;21.63;75.17;100607.59;5089214;28;20032;-72
2021/08/20 11:23:10;;;;;;;5.18;3.80;;;;;;;21.68;75.48;100605.69;5071266;28;20039;-72
2021/08/20 11:25:45;;;;;;;7.85;3.67;;;;;;;21.78;75.33;100605.13;5110894;28;20028;-72
2021/08/20 11:28:33;;;;;;;4.70;3.67;;;;;;;21.85;75.36;100602.47;5128933;27;20452;-73
2021/08/20 11:31:03;;;;;;;5.93;3.42;;;;;;;21.94;74.98;100597.41;5084685;28;20020;-73
2021/08/20 11:33:30;;;;;;;8.27;3.28;;;;;;;22.02;74.17;100598.41;5093060;28;20376;-72
2021/08/20 11:36:04;;;;;;;6.68;3.33;;;;;;;22.12;74.01;100602.66;5082084;28;20087;-73